Time;durP1;ratioP1;P1;durP2;ratioP2;P2;SDS_P1;SDS_P2;PMS_P1;PMS_P2;Temp;Humidity;BMP_temperature;BMP_pressure;BME280_temperature;BME280_humidity;BME280_pressure;Samples;Min_cycle;Max_cycle;Signal;HPM_P1;HPM_P2
2022/06/11 00:01:43;;;;;;;0.63;0.63;;;;;;;20.29;65.80;99851.75;5095724;28;20491;-67
2022/06/11 00:04:19;;;;;;;0.77;0.77;;;;;;;20.31;65.84;99843.91;5095781;28;20482;-66
2022/06/11 00:07:01;;;;;;;0.70;0.70;;;;;;;20.32;65.83;99845.59;5095392;28;20059;-67
2022/06/11 00:09:32;;;;;;;1.08;0.98;;;;;;;20.29;65.56;99845.72;5095341;28;20444;-65
2022/06/11 00:12:05;;;;;;;2.03;1.65;;;;;;;20.28;65.46;99844.00;5095266;28;20048;-64
2022/06/11 00:14:36;;;;;;;0.98;0.90;;;;;;;20.24;65.72;99838.13;5094685;28;20040;-66
2022/06/11 00:17:07;;;;;;;0.82;0.82;;;;;;;20.25;65.56;99839.78;5095364;28;20071;-65
2022/06/11 00:19:42;;;;;;;0.65;0.65;;;;;;;20.27;65.48;99837.16;5095139;28;20040;-66
2022/06/11 00:22:11;;;;;;;1.08;0.98;;;;;;;20.00;65.30;99798.38;5095053;28;20090;-66
2022/06/11 00:24:41;;;;;;;1.00;0.98;;;;;;;20.20;65.49;99828.75;5095245;28;20109;-64
2022/06/11 00:27:11;;;;;;;0.93;0.93;;;;;;;20.22;65.35;99839.91;5095296;28;20067;-66
2022/06/11 00:29:42;;;;;;;0.80;0.80;;;;;;;20.23;65.44;99835.59;5095264;28;20059;-66
2022/06/11 00:32:13;;;;;;;0.90;0.90;;;;;;;20.22;65.36;99823.47;5095200;28;20495;-65
2022/06/11 00:34:53;;;;;;;2.35;1.05;;;;;;;20.21;65.24;99822.63;5094804;28;20098;-66
2022/06/11 00:37:24;;;;;;;0.60;0.60;;;;;;;20.23;65.23;99825.22;5094604;28;20043;-65
2022/06/11 00:39:52;;;;;;;1.10;1.00;;;;;;;20.27;65.14;99837.16;5095086;28;20130;-66
2022/06/11 00:42:28;;;;;;;0.50;0.50;;;;;;;20.27;65.02;99837.16;5094569;28;20299;-66
2022/06/11 00:45:13;;;;;;;0.98;0.90;;;;;;;20.27;64.96;99837.16;5093680;28;20514;-66
2022/06/11 00:47:59;;;;;;;0.70;0.70;;;;;;;20.29;64.65;99837.94;5094580;28;20052;-66
2022/06/11 00:50:37;;;;;;;0.70;0.70;;;;;;;20.31;64.81;99841.31;5094842;28;20040;-64
2022/06/11 00:53:13;;;;;;;1.58;1.15;;;;;;;20.28;64.71;99833.63;5094509;28;20056;-65
2022/06/11 00:55:43;;;;;;;3.60;0.90;;;;;;;20.28;64.60;99838.81;5094385;28;20491;-66
2022/06/11 00:58:16;;;;;;;0.82;0.75;;;;;;;20.28;64.45;99833.63;5094712;28;20067;-66
2022/06/11 01:00:49;;;;;;;0.68;0.68;;;;;;;20.26;64.40;99836.31;5094349;28;20487;-65
2022/06/11 01:03:25;;;;;;;1.02;0.73;;;;;;;20.25;64.48;99833.78;5094332;28;20040;-66
2022/06/11 01:09:21;;;;;;;0.70;0.70;;;;;;;20.24;64.46;99832.06;4954799;28;20047;-65
2022/06/11 01:12:15;;;;;;;1.40;1.08;;;;;;;20.28;64.38;99836.22;4955949;28;20102;-64
2022/06/11 01:14:47;;;;;;;2.00;1.30;;;;;;;20.30;64.25;99837.03;4955840;28;20490;-64
2022/06/11 01:17:27;;;;;;;0.60;0.60;;;;;;;20.30;64.16;99837.88;4955866;28;20054;-63
2022/06/11 01:20:15;;;;;;;0.60;0.60;;;;;;;20.33;64.37;99839.50;4955845;28;20047;-64
2022/06/11 01:23:15;;;;;;;0.70;0.70;;;;;;;20.29;63.79;99840.53;4955387;28;20042;-63
2022/06/11 01:26:10;;;;;;;0.88;0.88;;;;;;;20.26;64.22;99841.50;4955405;28;20121;-64
2022/06/11 01:29:00;;;;;;;1.35;1.15;;;;;;;20.24;63.98;99832.06;4955675;28;20051;-63
2022/06/11 01:31:36;;;;;;;1.23;1.13;;;;;;;20.23;64.26;99835.59;4955234;28;20050;-62
2022/06/11 01:34:11;;;;;;;1.00;0.90;;;;;;;20.20;64.17;99843.44;4955299;28;20098;-62
2022/06/11 01:36:44;;;;;;;0.80;0.80;;;;;;;20.18;64.20;99840.88;4955474;28;20074;-63
2022/06/11 01:39:21;;;;;;;0.90;0.85;;;;;;;20.17;64.34;99838.34;4955636;28;20043;-63
2022/06/11 01:41:55;;;;;;;2.35;1.38;;;;;;;20.15;64.41;99842.75;4955523;28;20043;-64
2022/06/11 01:44:28;;;;;;;0.75;0.75;;;;;;;20.13;64.60;99844.56;4955452;28;20142;-62
2022/06/11 01:46:59;;;;;;;1.25;1.15;;;;;;;19.90;64.44;99812.56;4955213;28;20039;-64
2022/06/11 01:49:38;;;;;;;3.67;1.30;;;;;;;20.10;64.71;99844.66;4955716;28;20043;-64
2022/06/11 01:52:23;;;;;;;0.82;0.80;;;;;;;20.06;64.88;99844.78;4955310;28;20466;-64
2022/06/11 01:55:03;;;;;;;0.77;0.77;;;;;;;19.99;65.21;99838.13;4955453;28;20431;-64
2022/06/11 01:57:46;;;;;;;1.10;1.00;;;;;;;19.93;65.20;99842.69;4955048;28;20391;-63
2022/06/11 02:00:22;;;;;;;0.70;0.70;;;;;;;19.87;65.52;99843.75;4955062;28;20545;-63
2022/06/11 02:03:11;;;;;;;0.85;0.82;;;;;;;19.71;65.72;99823.63;4954982;28;20054;-62
2022/06/11 02:05:54;;;;;;;1.58;1.30;;;;;;;19.80;65.61;99847.47;4955214;28;20051;-64
2022/06/11 02:08:30;;;;;;;2.38;0.82;;;;;;;19.66;65.82;99812.59;4969698;28;20061;-63
2022/06/11 02:11:06;;;;;;;2.70;0.90;;;;;;;19.67;65.94;99820.31;4974835;28;20053;-64
2022/06/11 02:13:40;;;;;;;0.70;0.70;;;;;;;19.52;65.84;99799.28;4974220;28;20054;-64
2022/06/11 02:16:16;;;;;;;1.00;0.90;;;;;;;19.66;65.90;99836.75;4974748;28;20046;-64
2022/06/11 02:19:00;;;;;;;0.60;0.60;;;;;;;19.66;65.98;99836.75;4974135;28;20154;-64
2022/06/11 02:21:33;;;;;;;1.02;0.73;;;;;;;19.57;66.02;99824.13;4974373;28;20043;-63
2022/06/11 02:24:09;;;;;;;2.58;1.10;;;;;;;19.59;66.00;99832.69;4974719;28;20121;-63
2022/06/11 02:27:10;;;;;;;1.10;1.00;;;;;;;19.57;65.99;99834.50;4974275;28;20050;-64
2022/06/11 02:29:40;;;;;;;0.63;0.63;;;;;;;19.50;66.26;99838.19;4956641;28;20039;-64
2022/06/11 02:32:12;;;;;;;3.28;2.35;;;;;;;19.49;66.02;99836.47;4973803;28;20093;-63
2022/06/11 02:34:52;;;;;;;1.17;1.00;;;;;;;19.45;65.96;99837.50;4974011;28;20047;-62
2022/06/11 02:37:24;;;;;;;0.80;0.80;;;;;;;19.44;65.96;99834.94;4975526;28;20051;-64
2022/06/11 02:39:57;;;;;;;0.63;0.63;;;;;;;19.42;65.81;99831.56;4977926;28;20043;-63
2022/06/11 02:42:26;;;;;;;0.50;0.50;;;;;;;19.40;65.74;99831.63;4978205;28;20517;-63
2022/06/11 02:44:55;;;;;;;2.25;1.35;;;;;;;19.38;65.60;99833.44;4977936;28;20109;-64
2022/06/11 02:47:24;;;;;;;0.82;0.82;;;;;;;19.36;65.71;99824.88;4977840;28;20035;-63
2022/06/11 02:49:54;;;;;;;2.53;1.40;;;;;;;19.36;65.51;99830.06;4977451;28;20074;-63
2022/06/11 02:52:26;;;;;;;0.70;0.70;;;;;;;19.34;65.40;99830.06;4977588;28;20383;-62
2022/06/11 02:54:55;;;;;;;1.10;1.00;;;;;;;19.35;65.57;99833.50;4977861;28;20057;-63
2022/06/11 02:57:25;;;;;;;1.10;1.00;;;;;;;19.33;65.31;99836.16;4977890;28;20110;-63
2022/06/11 03:00:04;;;;;;;0.68;0.68;;;;;;;19.31;65.47;99844.84;4977535;28;20466;-65
2022/06/11 03:02:45;;;;;;;0.93;0.67;;;;;;;19.27;65.56;99840.66;4977281;28;20073;-62
2022/06/11 03:05:17;;;;;;;0.77;0.77;;;;;;;19.23;65.64;99839.09;4977122;28;20097;-62
2022/06/11 03:07:55;;;;;;;1.25;1.15;;;;;;;19.21;65.69;99838.28;4977116;28;20167;-64
2022/06/11 03:10:25;;;;;;;1.48;1.02;;;;;;;19.21;65.57;99841.72;4976879;28;20051;-64
2022/06/11 03:12:55;;;;;;;0.60;0.60;;;;;;;19.23;65.77;99844.25;4977093;28;20137;-63
2022/06/11 03:15:26;;;;;;;0.70;0.70;;;;;;;19.22;65.90;99842.56;4977729;28;20050;-62
2022/06/11 03:17:56;;;;;;;1.17;1.05;;;;;;;19.23;65.92;99839.09;4976851;28;20142;-63
2022/06/11 03:20:30;;;;;;;1.15;1.05;;;;;;;19.24;65.67;99840.78;4976879;28;20391;-62
2022/06/11 03:22:59;;;;;;;0.70;0.70;;;;;;;19.23;65.84;99839.09;4977204;28;20494;-64
2022/06/11 03:25:28;;;;;;;1.35;1.25;;;;;;;19.20;65.75;99834.84;4977200;28;20043;-64
2022/06/11 03:28:05;;;;;;;1.25;1.15;;;;;;;19.22;65.88;99846.00;4977318;28;20398;-62
2022/06/11 03:30:44;;;;;;;0.77;0.70;;;;;;;19.28;65.80;99852.72;4976906;28;20574;-64
2022/06/11 03:33:19;;;;;;;1.17;0.98;;;;;;;19.32;65.64;99854.28;4975527;28;20047;-64
2022/06/11 03:35:50;;;;;;;2.13;1.92;;;;;;;19.37;65.56;99852.44;4976819;28;20042;-64
2022/06/11 03:38:22;;;;;;;0.60;0.60;;;;;;;19.41;65.32;99859.22;4976502;28;20043;-64
2022/06/11 03:40:51;;;;;;;1.10;1.00;;;;;;;19.42;65.30;99871.25;4976850;28;20039;-64
2022/06/11 03:43:20;;;;;;;1.30;1.20;;;;;;;19.45;65.24;99873.75;4976381;28;20568;-64
2022/06/11 03:45:48;;;;;;;0.73;0.73;;;;;;;19.50;65.15;99869.25;4976622;28;20047;-63
2022/06/11 03:48:17;;;;;;;0.70;0.70;;;;;;;19.49;64.93;99872.75;4976393;28;20050;-62
2022/06/11 03:50:47;;;;;;;0.85;0.80;;;;;;;19.50;64.88;99882.22;4975884;28;20077;-64
2022/06/11 03:53:18;;;;;;;0.90;0.90;;;;;;;19.48;64.98;99881.41;4976420;28;20059;-65
2022/06/11 03:55:47;;;;;;;1.00;0.93;;;;;;;19.49;64.98;99877.91;4976583;28;20043;-63
2022/06/11 03:58:18;;;;;;;0.87;0.87;;;;;;;19.49;64.87;99883.09;4976880;28;20053;-63
2022/06/11 04:03:27;;;;;;;0.70;0.70;;;;;;;19.64;64.57;99880.00;4976319;28;20430;-63
2022/06/11 04:05:56;;;;;;;0.52;0.52;;;;;;;19.67;64.62;99877.31;4976197;28;20054;-63
2022/06/11 04:08:27;;;;;;;1.37;1.27;;;;;;;19.73;64.20;99881.41;4975442;28;20051;-65
2022/06/11 04:10:58;;;;;;;0.77;0.77;;;;;;;19.78;64.22;99875.19;4976368;28;20342;-64
2022/06/11 04:13:29;;;;;;;0.70;0.70;;;;;;;19.79;64.02;99882.06;4976137;28;20109;-64
2022/06/11 04:16:00;;;;;;;0.93;0.80;;;;;;;19.83;64.19;99881.03;4976144;28;20134;-63
2022/06/11 04:18:32;;;;;;;0.82;0.82;;;;;;;19.86;64.22;99878.34;4975796;28;20098;-63
2022/06/11 04:21:03;;;;;;;1.35;1.25;;;;;;;19.95;63.74;99880.63;4975802;28;20038;-65
2022/06/11 04:23:34;;;;;;;0.80;0.80;;;;;;;20.05;63.44;99878.53;4975308;28;20050;-64
2022/06/11 04:26:15;;;;;;;0.75;0.75;;;;;;;20.13;62.99;99880.84;4975983;28;20517;-64
2022/06/11 04:28:46;;;;;;;0.88;0.88;;;;;;;20.24;62.96;99883.94;4975972;28;20074;-64
2022/06/11 04:31:25;;;;;;;0.52;0.52;;;;;;;20.37;62.41;99885.16;4976249;28;20057;-65
2022/06/11 04:33:55;;;;;;;1.10;0.88;;;;;;;20.45;62.01;99877.94;4975969;28;20593;-65
2022/06/11 04:36:30;;;;;;;1.05;0.88;;;;;;;20.55;61.81;99876.69;4975925;28;20062;-64
2022/06/11 04:39:00;;;;;;;0.65;0.65;;;;;;;20.67;61.43;99884.00;4976136;28;20055;-63
2022/06/11 04:41:32;;;;;;;0.90;0.90;;;;;;;20.78;61.01;99887.00;4975802;28;20054;-64
2022/06/11 04:44:01;;;;;;;0.80;0.80;;;;;;;20.90;60.75;99886.53;4975407;28;20150;-64
2022/06/11 04:46:30;;;;;;;0.80;0.80;;;;;;;21.00;60.11;99885.28;4975414;28;20039;-63
2022/06/11 04:48:59;;;;;;;0.55;0.55;;;;;;;21.08;59.74;99885.00;4975529;28;20316;-64
2022/06/11 04:51:28;;;;;;;1.02;0.93;;;;;;;21.11;59.72;99871.91;4975809;28;20051;-65
2022/06/11 04:53:57;;;;;;;0.90;0.90;;;;;;;21.28;59.31;99887.66;4975458;28;20055;-63
2022/06/11 04:56:29;;;;;;;0.60;0.60;;;;;;;21.38;58.82;99886.34;4975658;28;20043;-63
2022/06/11 04:58:59;;;;;;;0.73;0.73;;;;;;;21.42;58.41;99885.31;4975417;28;20049;-64
2022/06/11 05:01:34;;;;;;;0.60;0.60;;;;;;;21.58;58.21;99890.69;4975364;28;20085;-64
2022/06/11 05:04:02;;;;;;;0.93;0.93;;;;;;;21.65;57.85;99886.94;4975215;28;20046;-65
2022/06/11 05:06:44;;;;;;;0.55;0.55;;;;;;;21.72;57.64;99888.34;4975196;28;20035;-64
2022/06/11 05:09:17;;;;;;;1.02;0.98;;;;;;;21.84;56.96;99893.03;4975138;28;20418;-64
2022/06/11 05:11:48;;;;;;;0.80;0.80;;;;;;;21.91;56.86;99895.34;4975491;28;20065;-63
2022/06/11 05:14:18;;;;;;;0.82;0.82;;;;;;;21.95;56.31;99901.25;4975156;28;20070;-63
2022/06/11 05:16:48;;;;;;;0.70;0.65;;;;;;;22.02;55.66;99892.28;4975299;28;20074;-64
2022/06/11 05:19:22;;;;;;;0.60;0.60;;;;;;;22.11;55.14;99891.88;4975109;28;20050;-63
2022/06/11 05:21:52;;;;;;;0.85;0.77;;;;;;;22.07;54.93;99868.69;4975036;28;20077;-63
2022/06/11 05:24:21;;;;;;;1.23;1.05;;;;;;;22.22;54.71;99900.03;4974917;28;20129;-64
2022/06/11 05:26:54;;;;;;;0.80;0.80;;;;;;;22.06;54.49;99865.22;4975162;28;20043;-63
2022/06/11 05:29:32;;;;;;;1.08;0.95;;;;;;;22.08;54.47;99863.41;4974950;28;20053;-63
2022/06/11 05:32:01;;;;;;;1.80;1.05;;;;;;;22.36;54.07;99900.25;4974937;28;20121;-63
2022/06/11 05:34:30;;;;;;;0.50;0.50;;;;;;;22.35;53.72;99880.38;4974847;28;20042;-62
2022/06/11 05:37:00;;;;;;;1.25;1.15;;;;;;;22.51;53.61;99894.34;4974857;28;20498;-64
2022/06/11 05:39:30;;;;;;;0.68;0.68;;;;;;;22.57;53.42;99896.69;4975091;28;20051;-64
2022/06/11 05:42:02;;;;;;;1.38;0.73;;;;;;;22.61;53.36;99898.25;4975155;28;20117;-63
2022/06/11 05:44:31;;;;;;;0.60;0.60;;;;;;;22.68;53.41;99894.44;4974964;28;20487;-62
2022/06/11 05:47:00;;;;;;;0.70;0.70;;;;;;;22.79;53.28;99890.50;4974618;28;20046;-63
2022/06/11 05:49:33;;;;;;;0.50;0.50;;;;;;;22.86;53.52;99897.09;4974614;28;20042;-64
2022/06/11 05:52:06;;;;;;;0.88;0.82;;;;;;;22.95;53.20;99896.66;4974619;28;20038;-64
2022/06/11 05:54:37;;;;;;;1.55;1.00;;;;;;;22.99;52.96;99901.66;4974594;28;20137;-61
2022/06/11 05:57:11;;;;;;;0.73;0.73;;;;;;;23.05;52.58;99898.78;4974585;28;20058;-63
2022/06/11 05:59:45;;;;;;;0.55;0.55;;;;;;;23.07;52.33;99901.28;4974873;28;20055;-63
2022/06/11 06:02:17;;;;;;;0.60;0.60;;;;;;;23.04;52.41;99894.47;4974903;28;20050;-63
2022/06/11 06:04:45;;;;;;;0.65;0.55;;;;;;;23.15;53.01;99884.38;4974413;28;20063;-65
2022/06/11 06:07:15;;;;;;;0.60;0.60;;;;;;;23.24;53.01;99894.34;4974241;28;20081;-63
2022/06/11 06:09:43;;;;;;;1.15;1.05;;;;;;;23.31;52.92;99894.88;4974452;28;20039;-62
2022/06/11 06:12:15;;;;;;;0.95;0.90;;;;;;;23.37;52.33;99894.59;4975041;28;20101;-63
2022/06/11 06:14:44;;;;;;;0.95;0.88;;;;;;;23.40;52.28;99894.47;4978450;28;20054;-63
2022/06/11 06:17:13;;;;;;;0.50;0.50;;;;;;;23.44;52.03;99900.38;4978285;28;20086;-63
2022/06/11 06:20:02;;;;;;;1.67;1.58;;;;;;;23.49;51.52;99894.00;4978439;28;20034;-65
2022/06/11 06:22:31;;;;;;;1.15;0.90;;;;;;;23.54;50.99;99897.22;4978532;28;20491;-63
2022/06/11 06:25:00;;;;;;;0.60;0.60;;;;;;;23.56;51.00;99898.00;4978033;28;20039;-62
2022/06/11 06:27:30;;;;;;;1.73;1.33;;;;;;;23.65;50.93;99900.16;4978454;28;20070;-64
2022/06/11 06:29:59;;;;;;;1.50;1.40;;;;;;;23.78;50.38;99893.38;4978395;28;20557;-63
2022/06/11 06:32:28;;;;;;;1.55;1.00;;;;;;;23.74;50.19;99891.84;4978067;28;20043;-64
2022/06/11 06:34:57;;;;;;;0.50;0.50;;;;;;;23.78;50.04;99895.97;4978102;28;20047;-63
2022/06/11 06:37:26;;;;;;;0.80;0.80;;;;;;;23.84;50.06;99895.69;4978006;28;20051;-63
2022/06/11 06:39:55;;;;;;;0.60;0.60;;;;;;;23.97;49.68;99901.09;4978219;28;20074;-63
2022/06/11 06:42:24;;;;;;;1.40;1.30;;;;;;;24.00;49.29;99899.16;4978019;28;20039;-63
2022/06/11 06:44:57;;;;;;;0.70;0.70;;;;;;;24.09;49.29;99902.25;4977615;28;20078;-64
2022/06/11 06:47:26;;;;;;;0.63;0.63;;;;;;;24.13;49.40;99896.81;4978048;28;20050;-63
2022/06/11 06:49:55;;;;;;;1.83;0.85;;;;;;;24.19;49.98;99903.44;4978018;28;20447;-63
2022/06/11 06:52:24;;;;;;;0.73;0.73;;;;;;;24.20;50.02;99902.53;4978083;28;20050;-63
2022/06/11 06:54:56;;;;;;;1.30;0.98;;;;;;;24.23;49.55;99904.97;4978058;28;20634;-65
2022/06/11 06:57:25;;;;;;;0.60;0.60;;;;;;;24.21;49.21;99904.22;4977701;28;20057;-63
2022/06/11 06:59:55;;;;;;;0.50;0.50;;;;;;;24.28;49.15;99905.59;4977457;28;20070;-63
2022/06/11 07:02:30;;;;;;;0.90;0.80;;;;;;;24.33;48.98;99906.19;4977655;28;20074;-63
2022/06/11 07:05:00;;;;;;;0.50;0.50;;;;;;;24.36;48.80;99903.38;4977566;28;20102;-64
2022/06/11 07:07:28;;;;;;;0.70;0.70;;;;;;;24.36;49.31;99909.47;4956952;29;20063;-62
2022/06/11 07:10:09;;;;;;;0.65;0.65;;;;;;;24.44;48.77;99909.91;4958080;28;20041;-64
2022/06/11 07:12:38;;;;;;;0.93;0.90;;;;;;;24.48;48.53;99913.16;4958475;28;20059;-63
2022/06/11 07:15:09;;;;;;;0.73;0.73;;;;;;;24.57;48.48;99915.31;4958110;28;20045;-64
2022/06/11 07:17:43;;;;;;;0.80;0.80;;;;;;;24.61;47.66;99911.59;4958015;28;20059;-63
2022/06/11 07:20:24;;;;;;;0.55;0.55;;;;;;;24.62;47.38;99911.50;4958388;28;20155;-63
2022/06/11 07:22:58;;;;;;;0.65;0.65;;;;;;;24.71;47.71;99914.56;4957886;29;20399;-63
2022/06/11 07:25:28;;;;;;;1.23;1.10;;;;;;;24.71;46.91;99909.31;4956830;28;20097;-64
2022/06/11 07:28:04;;;;;;;0.65;0.65;;;;;;;24.67;46.57;99911.25;4958178;28;20519;-65
2022/06/11 07:30:45;;;;;;;0.70;0.55;;;;;;;24.71;47.10;99915.41;4958192;28;20517;-65
2022/06/11 07:33:18;;;;;;;0.77;0.77;;;;;;;24.83;47.63;99916.53;4957827;28;20043;-63
2022/06/11 07:35:49;;;;;;;0.60;0.60;;;;;;;24.82;47.29;99913.06;4957960;29;20057;-63
2022/06/11 07:38:27;;;;;;;0.52;0.50;;;;;;;24.83;46.99;99919.97;4972968;28;20051;-62
2022/06/11 07:40:56;;;;;;;0.80;0.80;;;;;;;24.91;47.18;99915.16;4957920;29;20394;-63
2022/06/11 07:43:24;;;;;;;0.75;0.75;;;;;;;24.99;46.70;99920.81;4957833;28;20506;-63
2022/06/11 07:45:55;;;;;;;1.42;0.93;;;;;;;25.06;46.85;99916.91;4957444;28;20035;-63
2022/06/11 07:48:24;;;;;;;0.50;0.50;;;;;;;25.15;47.01;99913.78;4957868;29;20559;-64
2022/06/11 07:50:54;;;;;;;0.55;0.55;;;;;;;25.33;47.79;99913.66;4957779;28;20075;-63
2022/06/11 07:53:33;;;;;;;0.65;0.65;;;;;;;25.45;46.71;99913.00;4957336;29;20107;-65
2022/06/11 07:56:21;;;;;;;1.10;0.82;;;;;;;25.40;46.70;99917.59;4957644;28;20035;-64
2022/06/11 07:58:52;;;;;;;0.70;0.70;;;;;;;25.42;46.64;99919.22;4957337;29;20499;-64
2022/06/11 08:01:26;;;;;;;0.80;0.70;;;;;;;25.38;46.63;99927.31;4957271;28;20083;-63
2022/06/11 08:03:55;;;;;;;0.65;0.65;;;;;;;25.43;46.34;99922.66;4957497;28;20059;-64
2022/06/11 08:06:24;;;;;;;0.73;0.73;;;;;;;25.56;46.56;99921.03;4957391;29;20487;-62
2022/06/11 08:08:53;;;;;;;;;;;;;;;25.62;46.63;99913.72;4973331;28;20406;-63
2022/06/11 08:11:25;;;;;;;0.70;0.70;;;;;;;25.68;47.22;99921.19;4976652;28;20289;-63
2022/06/11 08:14:02;;;;;;;0.80;0.80;;;;;;;25.72;47.21;99921.84;4976295;28;20055;-66
2022/06/11 08:16:33;;;;;;;1.25;0.75;;;;;;;25.76;46.37;99933.81;4976310;28;20058;-65
2022/06/11 08:19:02;;;;;;;0.70;0.70;;;;;;;25.66;45.83;99927.44;4976021;28;20050;-64
2022/06/11 08:21:34;;;;;;;0.60;0.60;;;;;;;25.59;45.79;99926.09;4976106;28;20051;-63
2022/06/11 08:24:07;;;;;;;0.70;0.57;;;;;;;25.62;45.84;99923.31;4976760;28;20122;-62
2022/06/11 08:26:37;;;;;;;0.50;0.50;;;;;;;25.60;45.06;99927.78;4976059;28;20131;-63
2022/06/11 08:29:15;;;;;;;0.45;0.45;;;;;;;25.67;45.29;99929.13;4976095;28;20050;-64
2022/06/11 08:31:54;;;;;;;0.65;0.65;;;;;;;25.80;45.25;99927.44;4976060;28;20067;-63
2022/06/11 08:34:27;;;;;;;0.90;0.90;;;;;;;25.96;44.75;99926.44;4976202;28;20055;-64
2022/06/11 08:36:59;;;;;;;0.52;0.52;;;;;;;26.11;44.11;99924.72;4975702;28;20046;-65
2022/06/11 08:39:37;;;;;;;0.65;0.65;;;;;;;26.15;44.16;99901.84;4976135;28;20043;-64
2022/06/11 08:42:08;;;;;;;1.00;0.90;;;;;;;26.29;43.65;99931.47;4975811;28;20054;-65
2022/06/11 08:44:38;;;;;;;2.78;1.25;;;;;;;26.32;42.65;99928.63;4975679;28;20066;-63
2022/06/11 08:47:17;;;;;;;0.70;0.70;;;;;;;26.30;41.97;99922.66;4975586;28;20081;-63
2022/06/11 08:49:53;;;;;;;;;;;;;;;26.31;42.08;99926.97;4976133;28;20039;-65
2022/06/11 08:52:29;;;;;;;0.70;0.70;;;;;;;26.37;42.14;99923.97;4975552;28;19944;-63
2022/06/11 08:55:01;;;;;;;0.77;0.77;;;;;;;26.59;41.54;99921.72;4975874;28;20494;-65
2022/06/11 08:58:06;;;;;;;1.30;0.98;;;;;;;26.84;41.80;99907.09;4975385;28;20125;-62
2022/06/11 09:00:53;;;;;;;0.73;0.73;;;;;;;27.09;40.70;99921.13;4975430;28;20430;-64
2022/06/11 09:04:01;;;;;;;0.63;0.63;;;;;;;27.04;39.97;99898.81;4975723;28;20065;-64
2022/06/11 09:06:50;;;;;;;1.02;0.93;;;;;;;27.21;40.07;99922.97;4976538;28;20122;-65
2022/06/11 09:09:31;;;;;;;1.25;1.15;;;;;;;27.34;39.99;99920.38;4992824;28;20046;-65
2022/06/11 09:12:31;;;;;;;0.55;0.55;;;;;;;27.31;39.93;99920.56;4992788;28;20407;-64
2022/06/11 09:15:24;;;;;;;1.98;0.93;;;;;;;27.29;39.71;99909.34;4992578;28;20038;-65
2022/06/11 09:18:11;;;;;;;0.40;0.40;;;;;;;27.35;39.92;99916.84;4992475;28;20133;-64
2022/06/11 09:20:57;;;;;;;0.50;0.50;;;;;;;27.32;40.64;99911.78;4992578;28;20444;-64
2022/06/11 09:23:56;;;;;;;0.60;0.60;;;;;;;27.29;39.84;99914.59;4992688;28;20042;-66
2022/06/11 09:26:38;;;;;;;0.93;0.80;;;;;;;27.26;39.04;99906.94;4992320;28;20129;-66
2022/06/11 09:29:26;;;;;;;0.93;0.93;;;;;;;27.25;38.83;99915.75;4992293;28;20050;-65
2022/06/11 09:32:00;;;;;;;0.40;0.40;;;;;;;27.14;38.78;99918.22;4992265;28;20054;-65
2022/06/11 09:35:03;;;;;;;0.60;0.60;;;;;;;27.10;38.13;99921.97;4992336;28;20054;-65
2022/06/11 09:37:41;;;;;;;0.90;0.85;;;;;;;27.11;37.51;99918.44;4915551;29;20476;-65
2022/06/11 09:40:22;;;;;;;0.80;0.80;;;;;;;27.01;37.04;99912.09;4915308;29;20048;-64
2022/06/11 09:43:10;;;;;;;1.02;0.95;;;;;;;26.85;36.69;99917.47;4992216;28;20057;-64
2022/06/11 09:45:55;;;;;;;0.50;0.50;;;;;;;26.89;36.90;99913.72;4974699;28;20070;-64
2022/06/11 09:48:44;;;;;;;0.70;0.70;;;;;;;26.89;36.93;99923.38;4974096;28;20106;-65
2022/06/11 09:51:24;;;;;;;0.50;0.50;;;;;;;26.80;36.34;99913.47;4975140;28;20047;-64
2022/06/11 09:54:06;;;;;;;0.50;0.50;;;;;;;26.86;36.42;99918.31;4957650;28;20055;-65
2022/06/11 09:56:42;;;;;;;0.40;0.40;;;;;;;26.93;36.54;99916.97;4974735;28;20491;-64
2022/06/11 09:59:26;;;;;;;0.40;0.40;;;;;;;27.02;36.67;99913.75;4974678;28;20049;-64
2022/06/11 10:02:04;;;;;;;0.50;0.50;;;;;;;27.01;36.13;99912.09;4974904;28;20517;-65
2022/06/11 10:04:36;;;;;;;0.50;0.50;;;;;;;26.95;36.16;99908.09;4974616;28;20043;-63
2022/06/11 10:07:12;;;;;;;0.50;0.50;;;;;;;26.96;36.64;99914.16;4974265;28;20039;-64
2022/06/11 10:09:53;;;;;;;0.57;0.57;;;;;;;27.06;36.82;99908.25;4974774;28;20046;-64
2022/06/11 10:12:30;;;;;;;0.70;0.70;;;;;;;27.06;36.29;99902.16;4974548;28;20079;-64
2022/06/11 10:15:06;;;;;;;0.60;0.60;;;;;;;27.24;37.10;99908.81;4974694;28;20498;-65
2022/06/11 10:17:45;;;;;;;0.60;0.60;;;;;;;27.32;37.40;99909.16;4974552;28;20130;-65
2022/06/11 10:20:25;;;;;;;0.83;0.70;;;;;;;27.51;37.37;99907.03;4974767;28;20051;-66
2022/06/11 10:23:00;;;;;;;0.65;0.65;;;;;;;27.43;36.40;99904.06;4974366;28;20057;-63
2022/06/11 10:25:36;;;;;;;0.93;0.60;;;;;;;27.51;37.15;99907.03;4974608;28;20374;-64
2022/06/11 10:28:11;;;;;;;0.88;0.80;;;;;;;27.63;36.30;99908.84;4974409;28;20051;-66
2022/06/11 10:30:48;;;;;;;0.40;0.40;;;;;;;27.60;36.17;99901.16;4974425;28;20043;-64
2022/06/11 10:33:24;;;;;;;0.40;0.40;;;;;;;27.51;35.85;99904.41;4974356;28;20130;-65
2022/06/11 10:35:59;;;;;;;0.50;0.50;;;;;;;27.43;35.69;99898.81;4974599;28;20057;-64
2022/06/11 10:38:47;;;;;;;0.50;0.50;;;;;;;27.60;36.07;99893.31;4974312;28;20046;-65
2022/06/11 10:41:22;;;;;;;0.40;0.40;;;;;;;27.52;36.00;99906.06;4974255;28;20047;-65
2022/06/11 10:44:16;;;;;;;0.52;0.52;;;;;;;27.54;36.40;99896.34;4974560;28;20188;-64
2022/06/11 10:46:46;;;;;;;0.60;0.60;;;;;;;27.63;37.25;99895.72;4974437;28;20074;-65
2022/06/11 10:49:18;;;;;;;0.65;0.63;;;;;;;27.45;36.29;99891.69;4974707;28;20445;-64
2022/06/11 10:51:57;;;;;;;1.38;1.10;;;;;;;27.51;36.50;99880.81;4974524;28;20051;-64
2022/06/11 10:54:27;;;;;;;0.43;0.43;;;;;;;27.58;35.60;99887.31;4974461;28;20394;-64
2022/06/11 10:57:29;;;;;;;0.40;0.40;;;;;;;27.76;35.75;99891.31;4974389;28;20077;-65
2022/06/11 11:00:06;;;;;;;0.40;0.40;;;;;;;27.86;35.68;99892.38;4956483;28;20427;-64
2022/06/11 11:02:42;;;;;;;0.70;0.70;;;;;;;27.67;35.68;99881.44;4956348;28;20058;-64
2022/06/11 11:05:18;;;;;;;0.50;0.50;;;;;;;27.71;36.13;99877.69;4956271;29;20503;-66
2022/06/11 11:07:56;;;;;;;0.55;0.55;;;;;;;27.76;35.35;99896.56;4955985;29;20377;-64
2022/06/11 11:10:41;;;;;;;0.73;0.55;;;;;;;27.71;35.22;99882.94;4956275;28;20050;-63
2022/06/11 11:13:29;;;;;;;0.75;0.75;;;;;;;27.71;35.90;99877.69;4956179;29;20527;-64
2022/06/11 11:16:19;;;;;;;2.00;0.82;;;;;;;27.60;36.22;99877.56;4956084;29;20157;-64
2022/06/11 11:19:01;;;;;;;0.50;0.50;;;;;;;27.77;36.40;99871.16;4955966;28;20054;-64
2022/06/11 11:21:34;;;;;;;0.60;0.60;;;;;;;27.72;35.54;99874.09;4956033;28;20052;-66
2022/06/11 11:24:13;;;;;;;0.43;0.43;;;;;;;27.70;35.01;99865.50;4951192;29;20491;-65
2022/06/11 11:26:53;;;;;;;0.85;0.60;;;;;;;27.69;34.00;99868.25;4937528;29;20103;-65
2022/06/11 11:29:31;;;;;;;0.68;0.68;;;;;;;27.68;34.46;99864.78;4938868;29;20562;-63
2022/06/11 11:32:04;;;;;;;0.40;0.40;;;;;;;27.81;34.45;99867.41;4938950;29;20416;-64
2022/06/11 11:34:42;;;;;;;0.95;0.68;;;;;;;27.89;33.68;99865.94;4938615;29;20048;-65
2022/06/11 11:37:33;;;;;;;0.55;0.55;;;;;;;28.09;33.56;99861.09;4939118;29;20498;-64
2022/06/11 11:40:03;;;;;;;0.68;0.68;;;;;;;28.11;33.68;99853.97;4936398;29;20139;-65
2022/06/11 11:42:35;;;;;;;0.70;0.70;;;;;;;28.14;33.92;99864.25;4938397;29;20495;-65
2022/06/11 11:45:23;;;;;;;0.35;0.35;;;;;;;28.27;34.61;99865.06;4938688;29;20048;-65
2022/06/11 11:47:55;;;;;;;0.50;0.50;;;;;;;28.21;33.97;99868.13;4938339;29;20132;-66
2022/06/11 11:50:50;;;;;;;0.63;0.63;;;;;;;28.17;33.51;99854.38;4938295;29;20058;-65
2022/06/11 11:53:23;;;;;;;0.50;0.50;;;;;;;28.12;33.61;99856.47;4938245;29;20050;-65
2022/06/11 11:56:00;;;;;;;0.50;0.50;;;;;;;28.11;34.32;99861.84;4938145;29;20415;-65
2022/06/11 11:58:34;;;;;;;0.50;0.50;;;;;;;27.93;33.79;99862.13;4938183;29;20059;-65
2022/06/11 12:01:10;;;;;;;1.00;0.90;;;;;;;27.78;33.17;99847.47;4938443;29;20059;-65
2022/06/11 12:03:45;;;;;;;0.68;0.68;;;;;;;27.87;33.06;99857.31;4938321;29;20043;-63
2022/06/11 12:06:26;;;;;;;0.57;0.55;;;;;;;27.78;33.87;99850.09;4937939;29;20047;-66
2022/06/11 12:09:23;;;;;;;0.68;0.65;;;;;;;27.87;34.40;99849.44;4969837;28;20043;-65
2022/06/11 12:12:12;;;;;;;0.60;0.60;;;;;;;27.96;34.08;99844.50;4975927;28;20043;-66
2022/06/11 12:14:49;;;;;;;0.98;0.95;;;;;;;28.04;33.91;99847.47;4976364;28;20074;-64
2022/06/11 12:17:27;;;;;;;0.50;0.50;;;;;;;28.09;33.91;99850.63;4976223;28;20043;-65
2022/06/11 12:20:03;;;;;;;0.50;0.50;;;;;;;28.06;33.97;99850.81;4976219;28;20042;-65